createdAt,value
2018-07-12T00:01:34.780Z,93.00
2018-07-12T00:04:03.872Z,93.00
2018-07-12T00:06:32.948Z,93.10
2018-07-12T00:09:02.012Z,93.10
2018-07-12T00:11:31.299Z,93.10
2018-07-12T00:14:00.389Z,93.20
2018-07-12T00:16:29.496Z,93.20
2018-07-12T00:18:58.588Z,93.20
2018-07-12T00:21:27.679Z,93.20
2018-07-12T00:23:56.760Z,93.20
2018-07-12T00:26:25.818Z,93.20
2018-07-12T00:29:01.319Z,93.40
2018-07-12T00:31:30.379Z,93.40
2018-07-12T00:33:59.467Z,93.30
2018-07-12T00:36:28.535Z,93.40
2018-07-12T00:38:57.623Z,93.30
2018-07-12T00:41:26.685Z,93.30
2018-07-12T00:43:55.780Z,93.40
2018-07-12T00:46:24.863Z,93.50
2018-07-12T00:48:53.929Z,93.50
2018-07-12T00:51:23.029Z,93.60
2018-07-12T00:53:52.092Z,93.60
2018-07-12T00:56:21.184Z,93.60
2018-07-12T00:58:50.240Z,93.60
2018-07-12T01:01:19.339Z,93.50
2018-07-12T01:03:48.411Z,93.60
2018-07-12T01:06:17.481Z,93.70
2018-07-12T01:08:46.564Z,93.70
2018-07-12T01:11:15.645Z,93.80
2018-07-12T01:13:44.746Z,93.80
2018-07-12T01:16:13.815Z,93.80
2018-07-12T01:18:42.916Z,93.70
2018-07-12T01:21:11.988Z,93.60
2018-07-12T01:23:41.088Z,93.60
2018-07-12T01:26:10.185Z,93.70
2018-07-12T01:28:39.483Z,93.80
2018-07-12T01:31:08.538Z,93.80
2018-07-12T01:33:37.637Z,93.80
2018-07-12T01:36:06.740Z,93.80
2018-07-12T01:38:36.001Z,93.90
2018-07-12T01:41:05.101Z,93.90
2018-07-12T01:43:34.255Z,93.80
2018-07-12T01:46:03.352Z,93.90
2018-07-12T01:48:32.421Z,94.20
2018-07-12T01:51:01.680Z,94.10
2018-07-12T01:53:30.808Z,93.90
2018-07-12T01:55:59.872Z,93.90
2018-07-12T01:58:28.975Z,93.90
2018-07-12T02:00:58.072Z,93.90
2018-07-12T02:03:27.177Z,93.90
2018-07-12T02:05:56.275Z,93.80
2018-07-12T02:08:25.368Z,93.90
2018-07-12T02:10:54.433Z,94.00
2018-07-12T02:13:23.532Z,94.00
2018-07-12T02:15:52.605Z,94.00
2018-07-12T02:18:21.658Z,94.00
2018-07-12T02:20:50.740Z,94.00
2018-07-12T02:23:19.809Z,94.00
2018-07-12T02:25:48.911Z,93.90
2018-07-12T02:28:18.000Z,93.90
2018-07-12T02:30:47.074Z,93.90
2018-07-12T02:33:16.159Z,93.80
2018-07-12T02:35:45.226Z,93.80
2018-07-12T02:38:14.323Z,93.90
2018-07-12T02:40:43.380Z,93.90
2018-07-12T02:43:12.691Z,94.00
2018-07-12T02:45:41.956Z,94.00
2018-07-12T02:48:11.046Z,94.00
2018-07-12T02:50:40.100Z,94.00
2018-07-12T02:53:09.172Z,94.20
2018-07-12T02:55:38.232Z,93.70
2018-07-12T02:58:07.332Z,93.70
2018-07-12T03:00:36.396Z,93.70
2018-07-12T03:03:05.496Z,93.70
2018-07-12T03:05:34.557Z,93.50
2018-07-12T03:08:03.653Z,93.60
2018-07-12T03:10:32.719Z,93.60
2018-07-12T03:13:01.804Z,93.50
2018-07-12T03:15:30.887Z,93.60
2018-07-12T03:17:59.991Z,93.50
2018-07-12T03:20:29.262Z,93.50
2018-07-12T03:22:58.355Z,93.50
2018-07-12T03:25:27.552Z,93.40
2018-07-12T03:27:56.727Z,93.40
2018-07-12T03:30:25.825Z,93.40
2018-07-12T03:32:55.121Z,93.40
2018-07-12T03:35:24.188Z,93.60
2018-07-12T03:37:53.275Z,93.40
2018-07-12T03:40:22.333Z,93.50
2018-07-12T03:42:51.631Z,93.50
2018-07-12T03:45:20.703Z,93.60
2018-07-12T03:47:49.959Z,93.70
2018-07-12T03:50:19.021Z,93.70
2018-07-12T03:52:48.104Z,93.80
2018-07-12T03:55:17.207Z,93.80
2018-07-12T03:57:46.432Z,93.90
2018-07-12T04:00:15.540Z,94.00
2018-07-12T04:02:44.604Z,94.00
2018-07-12T04:05:13.701Z,94.00
2018-07-12T04:07:42.987Z,93.90
2018-07-12T04:10:12.096Z,93.90
2018-07-12T04:12:41.172Z,93.90
2018-07-12T04:15:10.248Z,93.90
2018-07-12T04:17:39.311Z,93.90
2018-07-12T04:20:08.372Z,94.00
2018-07-12T04:22:37.476Z,93.90
2018-07-12T04:25:06.562Z,94.00
2018-07-12T04:27:35.867Z,94.10
2018-07-12T04:30:04.924Z,94.20
2018-07-12T04:32:34.017Z,94.20
2018-07-12T04:35:03.084Z,94.30
2018-07-12T04:37:32.184Z,94.30
2018-07-12T04:40:01.242Z,94.30
2018-07-12T04:42:30.296Z,94.40
2018-07-12T04:44:59.396Z,94.30
2018-07-12T04:47:28.451Z,94.20
2018-07-12T04:49:57.543Z,94.10
2018-07-12T04:52:27.306Z,93.90
2018-07-12T04:54:56.411Z,93.90
2018-07-12T04:57:25.480Z,93.90
2018-07-12T04:59:54.539Z,93.80
2018-07-12T05:02:23.636Z,93.80
2018-07-12T05:04:52.751Z,93.70
2018-07-12T05:07:21.839Z,93.70
2018-07-12T05:09:50.947Z,93.60
2018-07-12T05:12:20.008Z,93.70
2018-07-12T05:14:49.095Z,93.40
2018-07-12T05:17:18.167Z,93.40
2018-07-12T05:19:47.264Z,93.30
2018-07-12T05:22:16.359Z,93.40
2018-07-12T05:24:45.420Z,93.30
2018-07-12T05:27:14.506Z,93.30
2018-07-12T05:29:43.616Z,93.30
2018-07-12T05:32:12.680Z,93.50
2018-07-12T05:34:41.757Z,93.10
2018-07-12T05:37:11.903Z,93.10
2018-07-12T05:39:48.416Z,93.10
2018-07-12T05:42:18.579Z,93.20
2018-07-12T05:44:55.335Z,93.00
2018-07-12T05:47:25.487Z,92.90
2018-07-12T05:49:55.679Z,92.80
2018-07-12T05:52:25.819Z,92.60
2018-07-12T05:54:55.980Z,92.60
2018-07-12T05:57:26.188Z,92.60
2018-07-12T05:59:56.516Z,92.60
2018-07-12T06:02:26.656Z,92.80
2018-07-12T06:04:57.195Z,92.50
2018-07-12T06:07:29.324Z,92.60
2018-07-12T06:09:59.631Z,92.80
2018-07-12T06:12:29.768Z,92.70
2018-07-12T06:14:59.952Z,92.90
2018-07-12T06:17:30.139Z,92.30
2018-07-12T06:20:00.312Z,92.80
2018-07-12T06:22:30.514Z,92.70
2018-07-12T06:25:00.712Z,92.80
2018-07-12T06:27:30.892Z,92.20
2018-07-12T06:30:01.129Z,92.20
2018-07-12T06:32:31.408Z,92.30
2018-07-12T06:35:01.599Z,91.80
2018-07-12T06:37:31.776Z,91.90
2018-07-12T06:40:01.923Z,91.00
2018-07-12T06:42:32.159Z,91.50
2018-07-12T06:45:02.519Z,91.90
2018-07-12T06:47:32.663Z,91.50
2018-07-12T06:50:02.840Z,91.20
2018-07-12T06:52:33.019Z,91.20
2018-07-12T06:55:03.207Z,90.80
2018-07-12T06:57:34.156Z,90.80
2018-07-12T07:00:04.407Z,90.80
2018-07-12T07:02:34.556Z,90.80
2018-07-12T07:05:04.923Z,91.10
2018-07-12T07:07:35.070Z,90.90
2018-07-12T07:10:05.236Z,90.30
2018-07-12T07:12:35.400Z,90.60
2018-07-12T07:15:05.600Z,90.60
2018-07-12T07:17:35.740Z,88.80
2018-07-12T07:20:05.959Z,86.80
2018-07-12T07:22:36.369Z,88.90
2018-07-12T07:25:06.519Z,88.00
2018-07-12T07:27:36.701Z,87.70
2018-07-12T07:30:07.312Z,87.20
2018-07-12T07:32:37.479Z,87.00
2018-07-12T07:35:07.703Z,87.70
2018-07-12T07:37:37.877Z,87.30
2018-07-12T07:40:08.040Z,87.90
2018-07-12T07:42:38.216Z,88.50
2018-07-12T07:45:08.376Z,89.00
2018-07-12T07:47:38.556Z,88.10
2018-07-12T07:50:09.061Z,88.20
2018-07-12T07:52:39.239Z,88.50
2018-07-12T07:55:09.399Z,89.00
2018-07-12T07:57:39.632Z,88.90
2018-07-12T08:00:10.233Z,88.80
2018-07-12T08:02:40.423Z,88.50
2018-07-12T08:05:10.584Z,86.80
2018-07-12T08:07:40.720Z,86.80
2018-07-12T08:10:10.903Z,86.70
2018-07-12T08:12:41.067Z,87.00
2018-07-12T08:15:11.232Z,85.30
2018-07-12T08:17:41.408Z,86.80
2018-07-12T08:20:11.639Z,87.00
2018-07-12T08:22:41.831Z,86.00
2018-07-12T08:25:12.040Z,84.30
2018-07-12T08:27:53.427Z,83.30
2018-07-12T08:30:23.627Z,83.60
2018-07-12T08:32:53.799Z,83.30
2018-07-12T08:35:23.980Z,82.50
2018-07-12T08:37:54.107Z,82.00
2018-07-12T08:40:24.309Z,82.50
2018-07-12T08:42:54.656Z,81.70
2018-07-12T08:45:25.560Z,81.30
2018-07-12T08:47:55.760Z,80.40
2018-07-12T08:50:25.978Z,80.90
2018-07-12T08:52:56.303Z,81.30
2018-07-12T08:55:26.652Z,80.10
2018-07-12T08:57:56.844Z,79.20
2018-07-12T09:00:27.379Z,78.90
2018-07-12T09:02:57.581Z,80.20
2018-07-12T09:05:27.955Z,78.60
2018-07-12T09:07:58.131Z,77.00
2018-07-12T09:10:28.304Z,77.20
2018-07-12T09:12:58.494Z,78.40
2018-07-12T09:15:28.999Z,77.40
2018-07-12T09:17:59.132Z,76.00
2018-07-12T09:20:29.409Z,74.40
2018-07-12T09:22:59.608Z,75.50
2018-07-12T09:25:30.080Z,76.50
2018-07-12T09:28:00.339Z,76.50
2018-07-12T09:30:30.510Z,77.90
2018-07-12T09:33:00.666Z,77.60
2018-07-12T09:35:30.825Z,78.30
2018-07-12T09:38:00.983Z,77.00
2018-07-12T09:40:31.147Z,76.60
2018-07-12T09:43:01.359Z,76.10
2018-07-12T09:45:32.255Z,76.30
2018-07-12T09:48:02.427Z,76.90
2018-07-12T09:50:32.599Z,76.70
2018-07-12T09:53:05.167Z,77.10
2018-07-12T09:55:35.327Z,77.00
2018-07-12T09:58:19.668Z,77.90
2018-07-12T10:00:55.268Z,77.50
2018-07-12T10:03:29.680Z,76.60
2018-07-12T10:06:00.243Z,75.30
2018-07-12T10:08:35.679Z,76.30
2018-07-12T10:11:07.860Z,76.20
2018-07-12T10:13:43.307Z,73.80
2018-07-12T10:16:18.959Z,75.00
2018-07-12T10:21:18.929Z,72.90
2018-07-12T10:23:49.164Z,74.40
2018-07-12T10:26:19.377Z,72.50
2018-07-12T10:28:49.516Z,74.00
2018-07-12T10:31:20.044Z,73.10
2018-07-12T10:33:50.183Z,73.10
2018-07-12T10:36:20.373Z,73.20
2018-07-12T10:38:50.545Z,73.40
2018-07-12T10:41:20.723Z,74.10
2018-07-12T10:43:50.907Z,74.10
2018-07-12T10:46:21.072Z,72.60
2018-07-12T10:48:51.214Z,72.90
2018-07-12T10:51:21.379Z,71.90
2018-07-12T10:53:51.552Z,70.30
2018-07-12T10:56:21.687Z,70.80
2018-07-12T10:58:52.001Z,69.60
2018-07-12T11:01:22.071Z,67.40
2018-07-12T11:03:52.207Z,68.90
2018-07-12T11:06:22.375Z,68.60
2018-07-12T11:08:52.531Z,68.80
2018-07-12T11:11:22.424Z,68.40
2018-07-12T11:13:53.331Z,68.50
2018-07-12T11:16:23.191Z,67.60
2018-07-12T11:18:53.071Z,67.00
2018-07-12T11:21:22.951Z,64.60
2018-07-12T11:23:53.128Z,65.10
2018-07-12T11:26:23.014Z,64.50
2018-07-12T11:28:53.191Z,63.90
2018-07-12T11:31:23.368Z,67.00
2018-07-12T11:33:53.558Z,65.70
2018-07-12T11:36:23.749Z,64.70
2018-07-12T11:38:53.922Z,65.40
2018-07-12T11:41:24.295Z,66.70
2018-07-12T11:43:54.452Z,67.70
2018-07-12T11:46:24.360Z,62.20
2018-07-12T11:48:54.204Z,61.60
2018-07-12T11:51:24.603Z,63.00
2018-07-12T11:53:54.988Z,62.20
2018-07-12T11:56:25.176Z,62.00
2018-07-12T11:58:55.017Z,64.10
2018-07-12T12:01:24.975Z,64.70
2018-07-12T12:03:54.996Z,64.80
2018-07-12T12:06:24.904Z,67.00
2018-07-12T12:08:54.784Z,66.00
2018-07-12T12:11:24.615Z,63.80
2018-07-12T12:13:54.535Z,63.80
2018-07-12T12:16:24.396Z,62.40
2018-07-12T12:18:54.263Z,63.30
2018-07-12T12:21:24.147Z,62.50
2018-07-12T12:23:54.063Z,62.10
2018-07-12T12:26:23.939Z,62.30
2018-07-12T12:28:53.865Z,62.50
2018-07-12T12:31:24.060Z,62.10
2018-07-12T12:33:53.952Z,59.90
2018-07-12T12:36:23.875Z,61.70
2018-07-12T12:38:53.806Z,61.20
2018-07-12T12:41:23.697Z,61.30
2018-07-12T12:43:53.579Z,61.50
2018-07-12T12:46:23.443Z,62.50
2018-07-12T12:48:53.327Z,62.50
2018-07-12T12:51:23.195Z,61.30
2018-07-12T12:53:53.092Z,58.40
2018-07-12T12:56:22.952Z,58.90
2018-07-12T12:58:53.090Z,57.60
2018-07-12T13:01:22.963Z,57.60
2018-07-12T13:03:52.812Z,57.80
2018-07-12T13:06:23.220Z,55.00
2018-07-12T13:08:53.108Z,55.50
2018-07-12T13:11:22.981Z,54.00
2018-07-12T13:13:52.888Z,52.60
2018-07-12T13:16:22.753Z,53.40
2018-07-12T13:18:52.651Z,55.00
2018-07-12T13:21:22.505Z,55.60
2018-07-12T13:23:52.429Z,56.00
2018-07-12T13:26:22.307Z,56.20
2018-07-12T13:28:52.475Z,56.10
2018-07-12T13:31:22.343Z,55.70
2018-07-12T13:33:52.236Z,54.80
2018-07-12T13:36:22.083Z,55.40
2018-07-12T13:38:51.976Z,53.90
2018-07-12T13:41:21.867Z,53.40
2018-07-12T13:44:18.497Z,53.50
2018-07-12T13:46:49.572Z,50.40
2018-07-12T13:49:19.604Z,52.00
2018-07-12T13:51:51.531Z,51.60
2018-07-12T13:54:21.503Z,52.30
2018-07-12T13:56:51.376Z,52.30
2018-07-12T13:59:21.267Z,51.40
2018-07-12T14:01:51.128Z,51.10
2018-07-12T14:04:21.072Z,52.30
2018-07-12T14:06:50.979Z,53.80
2018-07-12T14:09:21.047Z,52.90
2018-07-12T14:11:51.343Z,53.50
2018-07-12T14:14:21.220Z,52.40
2018-07-12T14:16:51.103Z,51.70
2018-07-12T14:19:20.952Z,50.80
2018-07-12T14:21:50.863Z,50.00
2018-07-12T14:24:20.723Z,50.10
2018-07-12T14:26:50.999Z,51.30
2018-07-12T14:29:20.999Z,51.00
2018-07-12T14:31:50.887Z,50.20
2018-07-12T14:34:21.116Z,51.50
2018-07-12T14:36:51.195Z,51.30
2018-07-12T14:39:21.081Z,50.30
2018-07-12T14:41:51.252Z,51.00
2018-07-12T14:44:21.152Z,52.20
2018-07-12T14:46:50.987Z,50.50
2018-07-12T14:49:20.900Z,50.40
2018-07-12T14:51:50.760Z,50.00
2018-07-12T14:54:20.629Z,49.30
2018-07-12T14:56:50.511Z,49.50
2018-07-12T14:59:20.396Z,49.50
2018-07-12T15:01:50.279Z,47.30
2018-07-12T15:04:20.164Z,48.60
2018-07-12T15:06:50.044Z,49.20
2018-07-12T15:09:20.046Z,49.90
2018-07-12T15:11:50.184Z,49.10
2018-07-12T15:14:20.395Z,48.50
2018-07-12T15:16:50.710Z,48.20
2018-07-12T15:19:20.749Z,49.10
2018-07-12T15:21:50.877Z,48.80
2018-07-12T15:24:20.723Z,48.50
2018-07-12T15:26:50.708Z,49.30
2018-07-12T15:29:20.563Z,49.10
2018-07-12T15:31:50.646Z,48.50
2018-07-12T15:34:20.487Z,50.40
2018-07-12T15:36:50.367Z,50.10
2018-07-12T15:39:20.239Z,50.60
2018-07-12T15:41:50.117Z,49.10
2018-07-12T15:44:19.988Z,49.90
2018-07-12T15:46:49.845Z,49.40
2018-07-12T15:49:19.716Z,49.90
2018-07-12T15:51:49.896Z,51.60
2018-07-12T15:54:19.775Z,51.50
2018-07-12T15:56:49.820Z,51.70
2018-07-12T15:59:19.707Z,51.90
2018-07-12T16:01:49.612Z,52.80
2018-07-12T16:04:19.489Z,52.80
2018-07-12T16:06:49.341Z,52.20
2018-07-12T16:09:19.247Z,52.50
2018-07-12T16:11:49.083Z,52.80
2018-07-12T16:14:18.992Z,52.80
2018-07-12T16:16:48.845Z,51.30
2018-07-12T16:19:18.743Z,51.70
2018-07-12T16:21:48.620Z,53.10
2018-07-12T16:24:18.543Z,53.70
2018-07-12T16:26:48.841Z,51.10
2018-07-12T16:29:18.687Z,51.30
2018-07-12T16:31:48.550Z,52.30
2018-07-12T16:34:18.596Z,52.40
2018-07-12T16:36:48.444Z,52.80
2018-07-12T16:39:18.418Z,52.80
2018-07-12T16:41:48.267Z,53.80
2018-07-12T16:44:18.151Z,53.70
2018-07-12T16:46:48.011Z,52.80
2018-07-12T16:49:17.924Z,53.00
2018-07-12T16:51:47.775Z,53.00
2018-07-12T16:54:17.736Z,52.90
2018-07-12T16:56:47.627Z,52.40
2018-07-12T16:59:17.487Z,52.90
2018-07-12T17:01:47.396Z,52.30
2018-07-12T17:04:17.410Z,52.30
2018-07-12T17:06:47.317Z,52.50
2018-07-12T17:09:17.222Z,51.50
2018-07-12T17:11:47.135Z,52.20
2018-07-12T17:14:17.013Z,51.90
2018-07-12T17:16:46.908Z,52.50
2018-07-12T17:19:16.775Z,52.70
2018-07-12T17:21:46.604Z,52.40
2018-07-12T17:24:16.466Z,51.40
2018-07-12T17:26:46.364Z,50.40
2018-07-12T17:29:16.244Z,48.80
2018-07-12T17:31:46.088Z,49.60
2018-07-12T17:34:16.235Z,48.20
2018-07-12T17:36:46.084Z,47.70
2018-07-12T17:39:15.996Z,48.60
2018-07-12T17:41:45.887Z,48.90
2018-07-12T17:44:15.772Z,48.30
2018-07-12T17:46:45.724Z,49.20
2018-07-12T17:49:15.587Z,49.80
2018-07-12T17:51:45.455Z,49.80
2018-07-12T17:54:15.500Z,49.60
2018-07-12T17:56:45.343Z,49.10
2018-07-12T17:59:15.200Z,49.60
2018-07-12T18:01:45.396Z,50.30
2018-07-12T18:04:15.297Z,50.10
2018-07-12T18:06:45.140Z,49.70
2018-07-12T18:09:15.008Z,49.30
2018-07-12T18:11:44.859Z,49.70
2018-07-12T18:14:14.784Z,49.90
2018-07-12T18:16:47.422Z,50.00
2018-07-12T18:19:18.071Z,49.70
2018-07-12T18:21:48.114Z,50.60
2018-07-12T18:24:18.988Z,51.50
2018-07-12T18:26:48.884Z,51.40
2018-07-12T18:29:18.900Z,51.80
2018-07-12T18:31:48.751Z,52.80
2018-07-12T18:34:18.663Z,51.80
2018-07-12T18:36:48.528Z,50.90
2018-07-12T18:39:18.514Z,51.10
2018-07-12T18:41:48.632Z,51.20
2018-07-12T18:44:18.476Z,51.30
2018-07-12T18:46:48.400Z,50.10
2018-07-12T18:49:18.283Z,50.10
2018-07-12T18:51:48.158Z,50.40
2018-07-12T18:54:18.024Z,50.20
2018-07-12T18:56:48.163Z,49.50
2018-07-12T18:59:18.060Z,50.10
2018-07-12T19:01:48.275Z,49.90
2018-07-12T19:04:18.351Z,50.70
2018-07-12T19:06:48.212Z,50.10
2018-07-12T19:09:18.123Z,50.30
2018-07-12T19:11:48.006Z,50.60
2018-07-12T19:14:17.873Z,52.00
2018-07-12T19:16:47.755Z,51.60
2018-07-12T19:19:17.620Z,52.30
2018-07-12T19:21:47.484Z,52.60
2018-07-12T19:24:17.379Z,52.80
2018-07-12T19:26:47.279Z,53.90
2018-07-12T19:29:17.158Z,54.40
2018-07-12T19:31:47.200Z,54.70
2018-07-12T19:36:53.247Z,54.60
2018-07-12T19:39:23.276Z,54.70
2018-07-12T19:41:53.147Z,54.80
2018-07-12T19:44:23.075Z,55.20
2018-07-12T19:46:54.132Z,55.10
2018-07-12T19:49:24.000Z,55.80
2018-07-12T19:51:53.843Z,55.50
2018-07-12T19:54:26.160Z,55.60
2018-07-12T19:56:57.090Z,56.30
2018-07-12T19:59:27.135Z,56.80
2018-07-12T20:01:57.348Z,56.30
2018-07-12T20:04:27.191Z,56.20
2018-07-12T20:06:57.144Z,56.30
2018-07-12T20:09:26.987Z,56.00
2018-07-12T20:11:56.848Z,55.80
2018-07-12T20:14:26.787Z,55.80
2018-07-12T20:16:56.652Z,55.80
2018-07-12T20:19:26.554Z,55.90
2018-07-12T20:21:56.391Z,55.20
2018-07-12T20:24:26.295Z,55.70
2018-07-12T20:26:56.183Z,54.70
2018-07-12T20:29:26.021Z,55.00
2018-07-12T20:31:55.905Z,55.30
2018-07-12T20:34:27.843Z,55.00
2018-07-12T20:36:57.721Z,55.40
2018-07-12T20:39:27.595Z,55.20
2018-07-12T20:41:57.472Z,55.20
2018-07-12T20:44:27.352Z,55.80
2018-07-12T20:46:57.191Z,55.50
2018-07-12T20:49:27.076Z,55.30
2018-07-12T20:51:57.765Z,55.60
2018-07-12T20:54:28.732Z,55.90
2018-07-12T20:56:59.576Z,55.40
2018-07-12T20:59:30.473Z,56.10
2018-07-12T21:02:01.384Z,56.00
2018-07-12T21:04:32.378Z,56.40
2018-07-12T21:07:03.413Z,56.20
2018-07-12T21:09:34.098Z,56.60
2018-07-12T21:12:04.338Z,56.70
2018-07-12T21:14:34.344Z,57.20
2018-07-12T21:17:04.211Z,58.00
2018-07-12T21:19:34.172Z,58.10
2018-07-12T21:22:04.074Z,57.90
2018-07-12T21:24:33.967Z,57.70
2018-07-12T21:27:03.915Z,58.10
2018-07-12T21:29:33.799Z,58.30
2018-07-12T21:32:03.672Z,59.10
2018-07-12T21:34:33.559Z,60.00
2018-07-12T21:37:04.277Z,61.50
2018-07-12T21:39:34.805Z,60.80
2018-07-12T21:42:05.514Z,63.60
2018-07-12T21:44:36.054Z,63.00
2018-07-12T21:47:06.480Z,63.50
2018-07-12T21:49:37.527Z,63.80
2018-07-12T21:52:08.402Z,63.20
2018-07-12T21:54:39.172Z,64.60
2018-07-12T21:57:10.247Z,65.30
2018-07-12T21:59:41.257Z,65.30
2018-07-12T22:02:11.177Z,66.10
2018-07-12T22:04:41.037Z,67.10
2018-07-12T22:08:22.464Z,66.50
2018-07-12T22:10:55.772Z,66.90
2018-07-12T22:13:26.503Z,67.20
2018-07-12T22:15:56.552Z,67.70
2018-07-12T22:18:26.907Z,68.10
2018-07-12T22:20:56.773Z,69.10
2018-07-12T22:23:26.771Z,70.80
2018-07-12T22:25:56.687Z,70.80
2018-07-12T22:28:26.735Z,70.00
2018-07-12T22:30:56.880Z,69.80
2018-07-12T22:33:26.751Z,70.30
2018-07-12T22:35:56.991Z,70.90
2018-07-12T22:38:26.847Z,71.00
2018-07-12T22:40:56.718Z,71.80
2018-07-12T22:43:27.003Z,73.00
2018-07-12T22:45:57.398Z,73.20
2018-07-12T22:48:27.364Z,73.00
2018-07-12T22:50:57.633Z,73.60
2018-07-12T22:53:27.792Z,74.50
2018-07-12T22:55:57.987Z,74.40
2018-07-12T22:58:28.162Z,74.40
2018-07-12T23:00:58.301Z,75.00
2018-07-12T23:03:28.471Z,75.60
2018-07-12T23:05:59.197Z,75.20
2018-07-12T23:08:29.791Z,75.10
2018-07-12T23:11:00.826Z,75.70
2018-07-12T23:13:31.794Z,75.40
2018-07-12T23:16:02.139Z,75.40
2018-07-12T23:18:32.313Z,76.30
2018-07-12T23:21:02.444Z,76.50
2018-07-12T23:23:32.612Z,76.80
2018-07-12T23:26:02.816Z,77.00
2018-07-12T23:28:32.960Z,77.40
2018-07-12T23:31:03.139Z,77.60
2018-07-12T23:33:33.296Z,77.60
2018-07-12T23:36:03.481Z,77.40
2018-07-12T23:38:33.599Z,77.40
2018-07-12T23:41:03.760Z,77.80
2018-07-12T23:43:33.928Z,78.20
2018-07-12T23:46:04.079Z,78.30
2018-07-12T23:48:34.505Z,78.20
2018-07-12T23:51:04.660Z,77.90
2018-07-12T23:53:34.824Z,78.40
2018-07-12T23:56:05.017Z,78.20
2018-07-12T23:58:35.147Z,78.60
